Time;durP1;ratioP1;P1;durP2;ratioP2;P2;SDS_P1;SDS_P2;PMS_P1;PMS_P2;Temp;Humidity;BMP_temperature;BMP_pressure;BME280_temperature;BME280_humidity;BME280_pressure;Samples;Min_cycle;Max_cycle;Signal;HPM_P1;HPM_P2
2021/03/15 00:01:43;;;;;;;13.50;5.57;;;;;;;7.93;62.62;99236.78;6158430;23;20009;-65
2021/03/15 00:04:09;;;;;;;7.90;4.47;;;;;;;7.93;62.56;99236.78;6158822;23;20068;-67
2021/03/15 00:06:34;;;;;;;7.97;4.60;;;;;;;7.92;62.58;99226.78;6158580;23;20072;-67
2021/03/15 00:08:59;;;;;;;8.27;4.93;;;;;;;7.91;62.19;99234.38;6158676;23;20295;-67
2021/03/15 00:11:24;;;;;;;6.25;3.92;;;;;;;7.90;62.41;99230.00;6158567;23;20037;-67
2021/03/15 00:13:50;;;;;;;7.88;4.68;;;;;;;7.90;62.23;99223.59;6158938;23;20005;-67
2021/03/15 00:16:15;;;;;;;7.80;5.22;;;;;;;7.89;62.13;99222.81;6158727;23;20380;-67
2021/03/15 00:18:40;;;;;;;7.57;4.15;;;;;;;7.88;61.85;99228.81;6133514;23;20388;-66
2021/03/15 00:21:06;;;;;;;7.82;4.20;;;;;;;7.87;61.75;99227.25;6134641;23;20361;-67
2021/03/15 00:23:31;;;;;;;8.68;4.60;;;;;;;7.87;62.29;99227.25;6160288;23;20028;-66
2021/03/15 00:25:56;;;;;;;11.07;4.47;;;;;;;7.84;61.14;99219.69;6160064;23;20009;-66
2021/03/15 00:28:22;;;;;;;7.68;4.13;;;;;;;7.84;61.75;99214.06;6160556;23;20064;-66
2021/03/15 00:30:47;;;;;;;10.27;4.30;;;;;;;7.83;61.16;99212.50;6160642;23;20412;-67
2021/03/15 00:33:13;;;;;;;8.95;4.25;;;;;;;7.80;61.24;99213.31;6134553;23;20009;-67
2021/03/15 00:35:38;;;;;;;7.30;4.18;;;;;;;7.80;60.79;99210.53;6160557;23;19997;-67
2021/03/15 00:38:04;;;;;;;7.75;4.30;;;;;;;7.78;61.51;99205.34;6160193;23;20008;-67
2021/03/15 00:40:29;;;;;;;11.13;4.65;;;;;;;7.75;61.10;99209.75;6160205;23;20045;-66
2021/03/15 00:42:55;;;;;;;7.03;4.43;;;;;;;7.75;60.96;99197.78;6160379;23;20005;-66
2021/03/15 00:45:23;;;;;;;7.72;4.20;;;;;;;7.74;60.92;99199.78;6160396;23;20009;-66
2021/03/15 00:47:49;;;;;;;6.45;3.70;;;;;;;7.74;61.21;99191.38;6160691;23;20021;-67
2021/03/15 00:50:17;;;;;;;10.20;4.10;;;;;;;7.73;61.52;99183.41;6160146;23;20001;-66
2021/03/15 00:52:42;;;;;;;8.73;4.43;;;;;;;7.73;61.53;99195.41;6159846;23;20008;-66
2021/03/15 00:55:08;;;;;;;6.00;4.15;;;;;;;7.72;61.04;99181.81;6160141;23;20001;-67
2021/03/15 00:57:33;;;;;;;13.73;4.57;;;;;;;7.69;61.22;99183.44;6160123;23;20272;-66
2021/03/15 00:59:59;;;;;;;8.15;4.30;;;;;;;7.68;60.87;99187.47;6160573;23;20402;-67
2021/03/15 01:02:24;;;;;;;8.50;4.25;;;;;;;7.70;61.36;99187.84;6160603;23;19997;-66
2021/03/15 01:04:49;;;;;;;7.03;4.40;;;;;;;7.68;60.80;99181.06;6160073;23;20012;-66
2021/03/15 01:07:15;;;;;;;7.22;4.18;;;;;;;7.68;60.56;99181.84;6159693;23;20362;-66
2021/03/15 01:09:41;;;;;;;8.90;5.10;;;;;;;7.66;60.58;99170.25;6160155;23;20483;-67
2021/03/15 01:12:07;;;;;;;8.20;4.70;;;;;;;7.64;60.71;99167.09;6159775;23;20037;-67
2021/03/15 01:14:32;;;;;;;7.30;4.20;;;;;;;7.63;60.25;99168.28;6159874;23;20001;-67
2021/03/15 01:16:58;;;;;;;7.88;4.00;;;;;;;7.63;60.52;99165.50;6160155;23;20384;-67
2021/03/15 01:19:27;;;;;;;7.68;4.00;;;;;;;7.63;60.65;99173.09;6160212;23;20001;-67
2021/03/15 01:21:53;;;;;;;5.28;3.72;;;;;;;7.65;60.09;99174.28;6159511;23;20013;-67
2021/03/15 01:24:19;;;;;;;10.50;4.20;;;;;;;7.65;60.14;99174.28;6160176;23;20009;-66
2021/03/15 01:26:44;;;;;;;6.70;4.55;;;;;;;7.65;60.64;99165.88;6159914;23;20081;-66
2021/03/15 01:29:10;;;;;;;6.38;3.78;;;;;;;7.64;60.43;99164.28;6133640;23;19998;-67
2021/03/15 01:31:35;;;;;;;7.10;3.45;;;;;;;7.63;60.25;99167.50;6159935;23;20001;-66
2021/03/15 01:34:00;;;;;;;5.18;3.88;;;;;;;7.61;59.56;99170.72;6159939;23;20060;-67
2021/03/15 01:36:26;;;;;;;5.95;3.25;;;;;;;7.60;59.68;99174.72;6159505;23;20005;-67
2021/03/15 01:38:51;;;;;;;9.60;3.65;;;;;;;7.60;59.78;99177.50;6159625;23;20136;-67
2021/03/15 01:41:16;;;;;;;7.43;3.53;;;;;;;7.60;59.85;99173.91;6159948;23;20144;-67
2021/03/15 01:43:42;;;;;;;7.85;4.00;;;;;;;7.61;60.44;99178.31;6134327;23;20012;-67
2021/03/15 01:46:07;;;;;;;8.63;4.82;;;;;;;7.64;60.42;99169.88;6159483;23;20347;-65
2021/03/15 01:48:33;;;;;;;9.45;4.43;;;;;;;7.69;61.65;99175.06;6159854;23;20001;-67
2021/03/15 01:50:58;;;;;;;14.10;6.60;;;;;;;7.75;62.58;99179.00;6159368;23;20417;-64
2021/03/15 01:53:25;;;;;;;17.63;8.32;;;;;;;7.81;63.85;99184.13;6159784;23;20001;-65
2021/03/15 01:55:51;;;;;;;16.35;10.15;;;;;;;7.85;64.79;99182.88;6159827;23;20001;-64
2021/03/15 01:58:16;;;;;;;14.02;9.00;;;;;;;7.88;66.20;99184.06;6133870;23;20244;-65
2021/03/15 02:00:44;;;;;;;14.93;8.15;;;;;;;7.89;68.08;99183.66;6159654;23;20008;-64
2021/03/15 02:03:09;;;;;;;12.35;8.45;;;;;;;7.94;69.13;99182.41;6159751;23;20005;-65
2021/03/15 02:05:37;;;;;;;14.23;8.48;;;;;;;7.96;70.06;99189.19;6159266;23;20005;-65
2021/03/15 02:08:04;;;;;;;13.55;9.07;;;;;;;7.99;70.97;99184.78;6159423;23;20084;-65
2021/03/15 02:10:30;;;;;;;14.20;9.20;;;;;;;7.98;70.88;99186.00;6159621;23;20001;-65
2021/03/15 02:13:08;;;;;;;13.13;8.13;;;;;;;7.95;71.48;99190.41;6159695;23;20080;-65
2021/03/15 02:15:56;;;;;;;12.52;8.70;;;;;;;7.89;72.76;99191.25;6159545;23;20001;-65
2021/03/15 02:18:39;;;;;;;11.52;8.25;;;;;;;7.82;73.52;99196.91;6159519;23;20002;-66
2021/03/15 02:21:42;;;;;;;13.13;8.43;;;;;;;7.79;74.78;99197.75;6159514;23;20006;-66
2021/03/15 02:24:14;;;;;;;13.40;8.52;;;;;;;7.76;74.97;99193.78;6159556;23;20009;-66
2021/03/15 02:27:14;;;;;;;13.02;8.63;;;;;;;7.74;75.34;99196.19;6159358;23;20020;-65
2021/03/15 02:30:06;;;;;;;12.48;8.52;;;;;;;7.73;75.61;99205.78;6159358;23;20317;-66
2021/03/15 02:32:46;;;;;;;13.45;8.63;;;;;;;7.72;76.35;99202.19;6159114;23;20055;-66
2021/03/15 02:35:20;;;;;;;13.75;8.30;;;;;;;7.70;77.03;99213.00;6159261;23;20036;-65
2021/03/15 02:38:12;;;;;;;12.40;8.27;;;;;;;7.69;77.16;99219.81;6159301;23;20028;-65
2021/03/15 02:40:53;;;;;;;12.07;8.45;;;;;;;7.69;77.08;99222.59;6153609;23;20382;-66
2021/03/15 02:43:31;;;;;;;12.80;8.80;;;;;;;7.65;77.33;99233.00;6159519;23;20054;-66
2021/03/15 02:46:00;;;;;;;15.85;9.57;;;;;;;7.67;78.26;99236.19;6133160;23;20008;-67
2021/03/15 02:48:27;;;;;;;12.55;9.32;;;;;;;7.69;76.36;99244.97;6159112;23;20008;-65
2021/03/15 02:50:55;;;;;;;14.35;8.50;;;;;;;7.76;74.88;99249.72;6159071;23;20059;-67
2021/03/15 02:53:23;;;;;;;18.60;8.48;;;;;;;7.71;74.72;99250.94;6159107;23;20080;-67
2021/03/15 02:55:51;;;;;;;15.20;9.07;;;;;;;7.66;73.83;99262.56;6159211;23;20378;-66
2021/03/15 02:58:17;;;;;;;16.27;9.25;;;;;;;7.65;73.16;99254.56;6159263;23;20358;-66
2021/03/15 03:00:44;;;;;;;17.20;10.07;;;;;;;7.57;73.01;99259.44;6159047;23;20013;-66
2021/03/15 03:03:10;;;;;;;15.48;9.35;;;;;;;7.51;73.01;99258.28;6158980;23;20392;-66
2021/03/15 03:05:36;;;;;;;18.70;10.27;;;;;;;7.50;72.95;99248.31;6159003;23;20262;-66
2021/03/15 03:08:04;;;;;;;13.48;9.00;;;;;;;7.45;73.26;99248.75;6159053;23;20001;-66
2021/03/15 03:10:31;;;;;;;14.32;8.77;;;;;;;7.40;73.14;99249.19;6159276;23;20006;-65
2021/03/15 03:12:58;;;;;;;16.52;9.10;;;;;;;7.36;73.51;99256.75;6159102;23;20001;-66
2021/03/15 03:15:31;;;;;;;15.30;8.40;;;;;;;7.31;73.53;99248.81;6159054;23;20244;-66
2021/03/15 03:18:00;;;;;;;12.25;8.40;;;;;;;7.23;74.23;99250.06;6158760;23;20012;-67
2021/03/15 03:20:58;;;;;;;14.25;8.73;;;;;;;7.22;74.68;99266.03;6158834;23;20053;-66
2021/03/15 03:23:27;;;;;;;13.15;9.13;;;;;;;7.17;74.64;99258.09;6158659;23;20013;-66
2021/03/15 03:25:55;;;;;;;15.45;9.43;;;;;;;7.11;75.40;99260.47;6157726;23;20314;-67
2021/03/15 03:28:23;;;;;;;13.85;8.48;;;;;;;7.08;75.82;99261.31;6159135;23;20062;-66
2021/03/15 03:30:49;;;;;;;17.33;9.52;;;;;;;7.04;76.52;99262.53;6158973;23;20005;-67
2021/03/15 03:33:15;;;;;;;15.85;9.48;;;;;;;7.00;76.50;99270.13;6132810;23;19997;-67
2021/03/15 03:35:42;;;;;;;12.85;9.38;;;;;;;6.96;77.26;99270.16;6133229;23;19998;-67
2021/03/15 03:38:07;;;;;;;16.08;9.98;;;;;;;6.95;77.13;99274.16;6158547;23;20018;-67
2021/03/15 03:40:33;;;;;;;13.57;8.90;;;;;;;6.93;77.52;99273.75;6158797;23;20367;-67
2021/03/15 03:42:59;;;;;;;14.82;9.82;;;;;;;6.90;77.76;99271.78;6158761;23;20085;-67
2021/03/15 03:45:24;;;;;;;14.68;10.02;;;;;;;6.90;78.50;99277.38;6133052;23;20001;-66
2021/03/15 03:47:50;;;;;;;17.45;10.30;;;;;;;6.91;78.73;99278.16;6158661;23;20016;-67
2021/03/15 03:50:20;;;;;;;15.25;9.38;;;;;;;6.90;78.64;99280.16;6158662;23;20429;-67
2021/03/15 03:53:09;;;;;;;15.55;9.93;;;;;;;7.00;78.12;99273.72;6159384;23;20048;-67
2021/03/15 03:55:47;;;;;;;16.00;10.55;;;;;;;7.05;78.61;99276.09;6160723;23;20005;-67
2021/03/15 03:58:14;;;;;;;14.10;9.50;;;;;;;7.13;78.13;99274.88;6135144;23;20010;-67
2021/03/15 04:00:40;;;;;;;14.45;9.52;;;;;;;7.12;78.15;99269.66;6160234;23;20004;-67
2021/03/15 04:03:14;;;;;;;14.15;9.35;;;;;;;7.13;78.52;99274.06;6160981;23;20005;-67
2021/03/15 04:05:43;;;;;;;18.52;9.82;;;;;;;7.06;78.85;99269.28;6160530;23;20377;-67
2021/03/15 04:08:13;;;;;;;17.73;9.70;;;;;;;7.05;79.21;99272.50;6160741;23;20006;-66
2021/03/15 04:10:39;;;;;;;12.27;9.52;;;;;;;7.00;79.24;99267.34;6160773;23;20362;-67
2021/03/15 04:13:11;;;;;;;12.10;8.85;;;;;;;6.95;79.38;99264.97;6160788;23;20259;-67
2021/03/15 04:15:43;;;;;;;13.68;8.85;;;;;;;6.90;79.58;99255.03;6160396;23;20350;-66
2021/03/15 04:18:11;;;;;;;13.63;8.00;;;;;;;6.89;79.40;99264.59;6160712;23;20001;-67
2021/03/15 04:20:38;;;;;;;13.02;8.02;;;;;;;6.86;79.45;99257.03;6160643;23;20005;-65
2021/03/15 04:23:07;;;;;;;15.43;8.30;;;;;;;6.85;78.99;99263.81;6160546;23;20016;-67
2021/03/15 04:25:35;;;;;;;15.02;8.73;;;;;;;6.85;78.76;99263.81;6160597;23;20006;-66
2021/03/15 04:28:03;;;;;;;11.82;8.80;;;;;;;6.82;78.81;99261.81;6160387;23;20076;-66
2021/03/15 04:30:29;;;;;;;13.32;7.78;;;;;;;6.79;78.99;99265.41;6160387;23;20313;-66
2021/03/15 04:32:56;;;;;;;16.73;8.07;;;;;;;6.80;78.56;99267.00;6134398;23;20025;-67
2021/03/15 04:35:34;;;;;;;15.18;7.85;;;;;;;6.83;78.01;99260.59;6160373;23;20056;-67
2021/03/15 04:38:01;;;;;;;11.18;7.50;;;;;;;6.89;76.96;99274.97;6160560;23;20028;-67
2021/03/15 04:40:29;;;;;;;17.75;7.95;;;;;;;6.89;77.24;99274.97;6160412;23;20021;-66
2021/03/15 04:43:00;;;;;;;13.18;7.95;;;;;;;6.88;76.74;99278.97;6160343;23;20006;-66
2021/03/15 04:45:43;;;;;;;11.85;8.38;;;;;;;6.91;76.07;99289.34;6160117;23;20032;-66
2021/03/15 04:48:17;;;;;;;14.05;8.55;;;;;;;6.88;76.22;99296.53;6160262;23;20002;-66
2021/03/15 04:50:44;;;;;;;11.65;7.85;;;;;;;6.87;76.57;99294.94;6160318;23;20025;-66
2021/03/15 04:53:11;;;;;;;12.93;8.30;;;;;;;6.87;75.84;99308.91;6160430;23;20055;-67
2021/03/15 04:55:39;;;;;;;13.60;7.80;;;;;;;6.84;75.00;99309.69;6160154;23;19997;-66
2021/03/15 04:58:08;;;;;;;17.65;7.05;;;;;;;6.87;74.38;99303.31;6160153;23;20001;-66
2021/03/15 05:00:35;;;;;;;9.63;6.82;;;;;;;6.86;73.16;99307.31;6160305;23;20008;-66
2021/03/15 05:03:05;;;;;;;11.07;6.88;;;;;;;6.82;74.33;99314.88;6160107;23;20025;-67
2021/03/15 05:05:32;;;;;;;10.60;7.05;;;;;;;6.83;74.24;99306.09;6159839;23;20029;-67
2021/03/15 05:08:01;;;;;;;13.23;8.23;;;;;;;6.79;73.84;99321.28;6160323;23;20009;-64
2021/03/15 05:10:27;;;;;;;10.73;7.90;;;;;;;6.74;74.26;99318.91;6160144;23;20012;-66
2021/03/15 05:12:52;;;;;;;12.85;7.88;;;;;;;6.69;75.13;99317.31;6160084;23;20005;-68
2021/03/15 05:15:18;;;;;;;12.68;8.23;;;;;;;6.65;75.84;99321.31;6160284;23;20025;-66
2021/03/15 05:17:44;;;;;;;12.52;7.90;;;;;;;6.63;75.88;99326.50;6159876;23;20012;-67
2021/03/15 05:20:14;;;;;;;15.15;7.30;;;;;;;6.57;76.65;99322.50;6160085;23;20376;-67
2021/03/15 05:22:42;;;;;;;10.35;7.65;;;;;;;6.63;76.06;99326.50;6160104;23;20106;-66
2021/03/15 05:25:10;;;;;;;12.32;7.75;;;;;;;6.63;76.05;99329.31;6134030;23;20265;-67
2021/03/15 05:27:36;;;;;;;15.57;8.88;;;;;;;6.59;76.67;99329.31;6159694;23;19998;-67
2021/03/15 05:30:05;;;;;;;12.93;8.40;;;;;;;6.56;76.80;99330.09;6160097;23;20008;-65
2021/03/15 05:32:32;;;;;;;26.55;12.75;;;;;;;6.51;76.98;99322.94;6133771;23;20124;-66
2021/03/15 05:35:00;;;;;;;20.58;11.77;;;;;;;6.49;76.94;99330.91;6160119;23;20136;-66
2021/03/15 05:37:27;;;;;;;15.73;9.43;;;;;;;6.48;77.12;99326.53;6160118;23;20037;-66
2021/03/15 05:39:53;;;;;;;18.05;8.07;;;;;;;6.44;77.32;99327.72;6159410;23;20017;-66
2021/03/15 05:42:28;;;;;;;12.50;7.78;;;;;;;6.42;77.14;99325.34;6159747;23;20115;-66
2021/03/15 05:44:56;;;;;;;14.93;8.05;;;;;;;6.37;77.31;99322.97;6159543;23;20002;-67
2021/03/15 05:47:40;;;;;;;14.55;7.97;;;;;;;6.33;77.31;99315.78;6159931;23;20001;-66
2021/03/15 05:50:43;;;;;;;14.43;8.07;;;;;;;6.30;77.65;99324.94;6159582;23;20072;-66
2021/03/15 05:53:46;;;;;;;13.57;8.40;;;;;;;6.29;77.77;99331.72;6159800;23;20251;-66
2021/03/15 05:56:11;;;;;;;12.02;7.82;;;;;;;6.24;78.00;99330.13;6159600;23;20012;-66
2021/03/15 05:58:55;;;;;;;15.02;8.13;;;;;;;6.22;78.00;99338.09;6159567;23;20213;-67
2021/03/15 06:01:35;;;;;;;12.38;8.55;;;;;;;6.20;78.00;99344.09;6159782;23;20010;-65
2021/03/15 06:04:32;;;;;;;15.65;8.32;;;;;;;6.17;78.49;99333.72;6159549;23;20029;-66
2021/03/15 06:07:02;;;;;;;14.15;9.00;;;;;;;6.19;78.43;99334.13;6133403;23;20016;-67
2021/03/15 06:09:36;;;;;;;16.38;9.40;;;;;;;6.20;78.67;99334.91;6133832;23;20037;-67
2021/03/15 06:12:05;;;;;;;14.27;9.05;;;;;;;6.19;78.73;99339.69;6133372;23;20017;-66
2021/03/15 06:14:34;;;;;;;14.35;8.93;;;;;;;6.18;78.47;99337.31;6159468;23;20006;-66
2021/03/15 06:17:01;;;;;;;16.50;8.98;;;;;;;6.19;78.80;99336.91;6159375;23;19997;-65
2021/03/15 06:19:26;;;;;;;15.15;9.65;;;;;;;6.16;78.88;99334.91;6159399;23;20008;-66
2021/03/15 06:21:52;;;;;;;15.88;9.30;;;;;;;6.16;78.96;99340.50;6159512;23;20005;-66
2021/03/15 06:24:19;;;;;;;14.05;9.27;;;;;;;6.17;79.44;99344.09;6159506;23;20307;-66
2021/03/15 06:26:45;;;;;;;15.70;8.82;;;;;;;6.18;79.72;99338.09;6159502;23;20231;-66
2021/03/15 06:29:11;;;;;;;12.98;7.82;;;;;;;6.23;80.24;99345.28;6133358;23;20008;-66
2021/03/15 06:31:39;;;;;;;10.55;7.80;;;;;;;6.25;80.06;99354.03;6159467;23;20009;-65
2021/03/15 06:34:05;;;;;;;11.65;7.47;;;;;;;6.26;80.45;99354.84;6159252;23;20013;-65
2021/03/15 06:36:33;;;;;;;11.57;7.47;;;;;;;6.25;80.25;99354.03;6158963;23;20350;-66
2021/03/15 06:39:00;;;;;;;12.98;8.77;;;;;;;6.26;80.13;99352.84;6159241;23;20022;-65
2021/03/15 06:41:28;;;;;;;12.85;9.23;;;;;;;6.26;80.39;99366.00;6159142;23;20366;-66
2021/03/15 06:43:54;;;;;;;12.35;9.15;;;;;;;6.25;80.38;99362.41;6159316;23;20001;-64
2021/03/15 06:46:20;;;;;;;10.85;8.23;;;;;;;6.24;80.35;99363.63;6159205;23;20060;-65
2021/03/15 06:48:45;;;;;;;13.25;8.18;;;;;;;6.21;80.35;99358.84;6133415;23;20009;-67
2021/03/15 06:51:10;;;;;;;11.15;8.20;;;;;;;6.19;80.18;99366.81;6159030;23;20084;-66
2021/03/15 06:53:37;;;;;;;12.27;8.20;;;;;;;6.18;80.34;99360.44;6159287;23;20005;-66
2021/03/15 06:56:10;;;;;;;12.77;9.00;;;;;;;6.18;80.50;99360.44;6159045;23;20009;-67
2021/03/15 06:58:36;;;;;;;10.63;8.63;;;;;;;6.19;80.78;99366.81;6159112;23;20006;-66
2021/03/15 07:01:07;;;;;;;9.77;8.25;;;;;;;6.19;80.57;99366.81;6159237;23;20036;-66
2021/03/15 07:03:33;;;;;;;14.85;8.38;;;;;;;6.19;80.57;99373.19;6159163;23;20001;-66
2021/03/15 07:05:59;;;;;;;12.10;8.10;;;;;;;6.22;80.97;99359.63;6158880;23;20084;-66
2021/03/15 07:08:25;;;;;;;10.10;6.68;;;;;;;6.28;80.45;99346.88;6159340;23;20008;-66
2021/03/15 07:10:57;;;;;;;12.35;7.63;;;;;;;6.31;80.60;99343.31;6133002;23;20068;-66
2021/03/15 07:13:25;;;;;;;11.32;7.78;;;;;;;6.33;80.30;99338.91;6159032;23;20005;-66
2021/03/15 07:15:53;;;;;;;10.60;6.35;;;;;;;6.33;80.07;99338.91;6159180;23;19998;-66
2021/03/15 07:18:22;;;;;;;7.93;5.72;;;;;;;6.37;80.01;99341.69;6159166;23;20012;-65
2021/03/15 07:21:00;;;;;;;12.30;6.55;;;;;;;6.40;79.80;99344.47;6158703;23;20012;-66
2021/03/15 07:23:37;;;;;;;10.77;6.60;;;;;;;6.45;79.41;99341.28;6158902;23;20405;-67
2021/03/15 07:26:19;;;;;;;8.93;6.25;;;;;;;6.47;79.24;99340.88;6158766;23;20008;-66
2021/03/15 07:28:46;;;;;;;9.85;6.43;;;;;;;6.46;79.13;99339.28;6161175;23;20005;-66
2021/03/15 07:31:32;;;;;;;9.23;6.38;;;;;;;6.47;79.39;99343.69;6160890;23;20005;-66
2021/03/15 07:33:57;;;;;;;10.43;7.15;;;;;;;6.44;79.48;99345.28;6159941;23;20069;-67
2021/03/15 07:36:26;;;;;;;9.38;7.03;;;;;;;6.42;79.60;99336.50;6161107;23;20005;-65
2021/03/15 07:38:55;;;;;;;9.27;6.93;;;;;;;6.41;79.79;99339.69;6160717;23;20041;-64
2021/03/15 07:41:22;;;;;;;13.13;7.22;;;;;;;6.40;79.37;99338.91;6161021;23;20009;-66
2021/03/15 07:43:48;;;;;;;13.07;7.65;;;;;;;6.41;79.37;99336.91;6160886;23;20006;-65
2021/03/15 07:46:27;;;;;;;11.77;7.57;;;;;;;6.43;79.44;99331.72;6161046;23;20343;-68
2021/03/15 07:48:54;;;;;;;9.93;7.75;;;;;;;6.46;79.61;99342.88;6160765;23;20005;-67
2021/03/15 07:51:31;;;;;;;9.02;7.13;;;;;;;6.48;79.36;99346.06;6160799;23;20255;-66
2021/03/15 07:54:08;;;;;;;10.40;7.20;;;;;;;6.46;79.38;99340.09;6160746;23;20012;-67
2021/03/15 07:56:34;;;;;;;12.18;8.27;;;;;;;6.53;79.55;99338.47;6160774;23;19998;-66
2021/03/15 07:58:59;;;;;;;9.88;7.65;;;;;;;6.56;79.50;99340.47;6161244;23;20012;-66
2021/03/15 08:01:25;;;;;;;14.90;11.05;;;;;;;6.55;79.13;99334.09;6160871;23;20005;-64
2021/03/15 08:03:51;;;;;;;17.42;12.60;;;;;;;6.57;78.59;99342.84;6160422;23;20001;-66
2021/03/15 08:06:17;;;;;;;13.90;10.18;;;;;;;6.68;78.27;99340.06;6134916;23;20248;-65
2021/03/15 08:08:43;;;;;;;17.85;11.02;;;;;;;6.71;78.26;99347.63;6160614;23;20009;-66
2021/03/15 08:11:12;;;;;;;16.48;10.93;;;;;;;6.77;78.00;99340.44;6160792;23;20009;-65
2021/03/15 08:13:42;;;;;;;15.43;10.65;;;;;;;6.86;78.05;99338.03;6160756;23;20409;-65
2021/03/15 08:16:11;;;;;;;12.60;9.40;;;;;;;6.90;77.82;99338.81;6160733;23;20040;-67
2021/03/15 08:18:40;;;;;;;15.93;11.40;;;;;;;6.95;77.79;99341.19;6160386;23;20001;-66
2021/03/15 08:21:10;;;;;;;14.27;10.48;;;;;;;7.00;77.10;99334.38;6160335;23;20006;-65
2021/03/15 08:23:43;;;;;;;12.52;10.13;;;;;;;7.06;77.15;99333.56;6134902;23;20092;-66
2021/03/15 08:26:14;;;;;;;15.30;9.95;;;;;;;7.11;76.91;99324.75;6134507;23;20337;-66
2021/03/15 08:28:42;;;;;;;11.52;9.20;;;;;;;7.20;76.81;99323.53;6133433;23;20318;-66
2021/03/15 08:31:18;;;;;;;12.68;10.25;;;;;;;7.30;76.11;99328.28;6157722;23;20009;-67
2021/03/15 08:33:45;;;;;;;14.30;10.25;;;;;;;7.38;76.89;99319.44;6159089;23;20001;-68
2021/03/15 08:36:12;;;;;;;13.75;10.23;;;;;;;7.46;75.92;99319.44;6159067;23;20081;-66
2021/03/15 08:38:38;;;;;;;13.52;10.40;;;;;;;7.55;75.91;99323.34;6158593;23;20017;-66
2021/03/15 08:41:08;;;;;;;13.30;10.38;;;;;;;7.69;75.18;99308.50;6160502;23;20016;-66
2021/03/15 08:43:37;;;;;;;13.77;10.27;;;;;;;7.82;74.70;99315.19;6160431;23;20073;-66
2021/03/15 08:46:06;;;;;;;13.73;10.00;;;;;;;7.91;73.04;99303.53;6134332;23;20017;-66
2021/03/15 08:48:37;;;;;;;15.32;10.57;;;;;;;8.00;73.71;99301.09;6160156;23;20359;-67
2021/03/15 08:51:07;;;;;;;13.40;10.75;;;;;;;8.11;72.86;99301.00;6160203;23;20005;-67
2021/03/15 08:53:39;;;;;;;14.05;9.70;;;;;;;8.20;72.00;99290.91;6160157;23;20085;-67
2021/03/15 08:56:32;;;;;;;17.10;11.05;;;;;;;8.30;73.55;99284.44;6160340;23;20005;-67
2021/03/15 08:58:59;;;;;;;15.20;10.25;;;;;;;8.41;75.92;99272.34;6160707;23;20019;-66
2021/03/15 09:01:26;;;;;;;16.08;9.60;;;;;;;8.58;75.60;99262.97;6160330;23;20012;-67
2021/03/15 09:03:58;;;;;;;14.85;9.48;;;;;;;8.72;72.36;99265.63;6160024;23;20008;-67
2021/03/15 09:06:41;;;;;;;11.77;8.23;;;;;;;8.76;69.79;99248.75;6160031;23;20001;-66
2021/03/15 09:09:06;;;;;;;15.05;10.07;;;;;;;8.73;69.45;99244.78;6159957;23;20076;-66
2021/03/15 09:11:37;;;;;;;14.65;9.75;;;;;;;8.76;68.72;99231.94;6160257;23;20329;-65
2021/03/15 09:14:18;;;;;;;13.95;9.52;;;;;;;8.74;68.09;99226.78;6160241;23;20297;-66
2021/03/15 09:16:50;;;;;;;13.52;9.25;;;;;;;8.74;68.12;99217.56;6160152;23;20398;-65
2021/03/15 09:19:34;;;;;;;15.52;10.13;;;;;;;8.70;67.76;99212.00;6159696;23;20287;-66
2021/03/15 09:22:15;;;;;;;12.93;9.95;;;;;;;8.70;67.23;99205.63;6160090;23;20001;-64
2021/03/15 09:24:57;;;;;;;19.38;9.60;;;;;;;8.73;67.85;99204.78;6160113;23;20001;-66
2021/03/15 09:27:41;;;;;;;18.20;10.65;;;;;;;8.76;68.46;99204.72;6160105;23;20317;-65
2021/03/15 09:30:18;;;;;;;17.25;10.18;;;;;;;8.81;67.75;99209.09;6159859;23;20009;-68
2021/03/15 09:32:49;;;;;;;12.13;9.18;;;;;;;8.87;65.64;99211.00;6159903;23;20351;-66
2021/03/15 09:35:26;;;;;;;13.82;9.38;;;;;;;8.88;65.04;99209.78;6133934;23;20377;-65
2021/03/15 09:37:58;;;;;;;14.57;9.55;;;;;;;8.88;65.07;99203.41;6134158;23;20013;-63
2021/03/15 09:40:41;;;;;;;12.45;8.65;;;;;;;8.92;65.45;99204.16;6157608;23;20025;-64
2021/03/15 09:43:07;;;;;;;14.48;9.13;;;;;;;9.01;64.89;99200.81;6159272;23;20023;-65
2021/03/15 09:45:38;;;;;;;11.38;8.90;;;;;;;9.10;65.99;99201.13;6133613;23;20005;-66
2021/03/15 09:48:16;;;;;;;10.48;8.73;;;;;;;9.16;65.98;99196.63;6132838;23;20370;-66
2021/03/15 09:50:51;;;;;;;20.90;11.85;;;;;;;9.28;65.79;99201.63;6159074;23;20005;-66
2021/03/15 09:53:18;;;;;;;16.38;10.60;;;;;;;9.34;64.15;99196.38;6158992;23;20001;-67
2021/03/15 09:55:44;;;;;;;17.92;11.18;;;;;;;9.41;64.47;99194.25;6159831;23;20174;-66
2021/03/15 09:58:14;;;;;;;15.25;10.40;;;;;;;9.52;64.37;99192.06;6158659;23;20042;-66
2021/03/15 10:00:43;;;;;;;14.88;9.48;;;;;;;9.58;64.42;99187.53;6159454;23;20028;-67
2021/03/15 10:03:19;;;;;;;13.25;9.52;;;;;;;9.72;62.84;99191.34;6159426;23;20476;-65
2021/03/15 10:05:47;;;;;;;11.32;7.68;;;;;;;9.77;61.62;99179.63;6159563;23;20001;-67
2021/03/15 10:08:12;;;;;;;12.85;8.70;;;;;;;9.86;63.00;99177.91;6159516;23;20010;-65
2021/03/15 10:10:37;;;;;;;17.30;8.75;;;;;;;9.95;62.02;99176.53;6159618;23;20005;-65
2021/03/15 10:13:05;;;;;;;42.15;9.55;;;;;;;10.02;61.70;99187.63;6159590;23;20013;-65
2021/03/15 10:15:31;;;;;;;13.60;7.00;;;;;;;10.15;61.20;99178.19;6159809;23;20001;-63
2021/03/15 10:17:57;;;;;;;12.45;8.30;;;;;;;10.28;61.29;99171.94;6159046;23;20011;-64
2021/03/15 10:20:28;;;;;;;10.68;7.10;;;;;;;10.40;60.20;99171.28;6159266;23;20016;-64
2021/03/15 10:22:54;;;;;;;9.75;7.40;;;;;;;10.47;58.78;99171.19;6159265;23;20271;-64
2021/03/15 10:25:20;;;;;;;11.20;7.05;;;;;;;10.50;58.16;99159.06;6159048;23;20002;-63
2021/03/15 10:27:54;;;;;;;11.43;6.60;;;;;;;10.55;58.59;99172.63;6159259;23;20005;-63
2021/03/15 10:30:19;;;;;;;14.82;7.07;;;;;;;10.62;57.94;99164.03;6159123;23;20052;-66
2021/03/15 10:32:45;;;;;;;14.73;6.82;;;;;;;10.71;57.12;99155.84;6158587;23;20009;-63
2021/03/15 10:35:12;;;;;;;13.80;8.40;;;;;;;10.78;55.56;99154.88;6159114;23;20004;-62
2021/03/15 10:37:42;;;;;;;14.23;9.48;;;;;;;10.86;55.94;99149.91;6159581;23;20005;-62
2021/03/15 10:40:10;;;;;;;15.00;9.15;;;;;;;10.94;55.64;99159.75;6159052;23;20092;-63
2021/03/15 10:42:38;;;;;;;17.58;10.18;;;;;;;11.02;54.18;99158.38;6159352;23;20013;-64
2021/03/15 10:45:09;;;;;;;18.92;11.63;;;;;;;11.12;54.55;99151.72;6158914;23;20012;-64
2021/03/15 10:47:36;;;;;;;12.68;7.28;;;;;;;11.23;52.83;99152.28;6159065;23;20075;-63
2021/03/15 10:50:22;;;;;;;10.57;6.45;;;;;;;11.25;52.86;99163.09;6159280;23;20266;-62
2021/03/15 10:52:48;;;;;;;9.27;5.90;;;;;;;11.25;52.75;99154.66;6159343;23;20056;-64
2021/03/15 10:55:20;;;;;;;8.45;5.72;;;;;;;11.27;53.80;99144.56;6159194;23;20005;-64
2021/03/15 10:58:15;;;;;;;9.20;4.97;;;;;;;11.31;53.17;99148.06;6159234;23;20009;-64
2021/03/15 11:00:42;;;;;;;8.43;4.90;;;;;;;11.31;50.77;99150.88;6158488;23;20032;-62
2021/03/15 11:03:18;;;;;;;17.08;7.28;;;;;;;11.27;49.92;99152.19;6159025;23;20012;-63
2021/03/15 11:05:44;;;;;;;11.60;4.55;;;;;;;11.22;48.40;99149.88;6159127;23;20385;-63
2021/03/15 11:08:19;;;;;;;5.85;3.67;;;;;;;11.21;47.93;99148.28;6158975;23;20006;-65
2021/03/15 11:10:47;;;;;;;5.97;3.35;;;;;;;11.10;48.60;99148.56;6159257;23;20005;-64
2021/03/15 11:13:19;;;;;;;6.88;4.20;;;;;;;11.08;48.10;99146.19;6159207;23;20055;-63
2021/03/15 11:15:45;;;;;;;6.95;3.50;;;;;;;11.05;50.02;99140.63;6158809;23;20005;-63
2021/03/15 11:18:21;;;;;;;7.13;3.92;;;;;;;11.04;49.77;99144.69;6158952;23;20025;-61
2021/03/15 11:20:46;;;;;;;5.53;3.60;;;;;;;11.00;49.20;99138.34;6132975;23;20002;-63
2021/03/15 11:23:13;;;;;;;7.03;4.00;;;;;;;10.99;48.88;99140.38;6133268;23;20016;-62
2021/03/15 11:25:40;;;;;;;7.80;3.10;;;;;;;11.02;48.60;99124.66;6159177;23;20056;-62
2021/03/15 11:28:10;;;;;;;7.18;3.97;;;;;;;11.01;48.01;99123.84;6157615;23;20302;-63
2021/03/15 11:30:36;;;;;;;6.25;3.72;;;;;;;11.03;46.39;99129.03;6157806;23;20363;-63
2021/03/15 11:33:10;;;;;;;8.68;4.55;;;;;;;11.03;47.80;99127.03;6157096;23;20056;-63
2021/03/15 11:35:40;;;;;;;6.95;3.50;;;;;;;11.02;48.56;99128.25;6158969;23;20001;-63
2021/03/15 11:38:06;;;;;;;7.63;3.53;;;;;;;11.04;48.57;99122.19;6158703;23;20063;-63
2021/03/15 11:40:39;;;;;;;12.23;6.07;;;;;;;11.07;48.24;99124.91;6158683;23;20417;-63
2021/03/15 11:43:07;;;;;;;5.70;3.63;;;;;;;11.09;47.92;99119.63;6158886;23;20075;-63
2021/03/15 11:45:32;;;;;;;7.93;3.55;;;;;;;11.11;45.95;99119.22;6158818;23;20033;-63
2021/03/15 11:47:58;;;;;;;11.02;5.15;;;;;;;11.14;49.46;99109.88;6158208;23;20006;-63